• Join FlightAware (Why Join?)
  • Login
  • US Flag 
06:47AM EDT


 

Airport Tracker/Info


-or-


 

Live Flight TrackerFlight Track Log ✈ SWA415 ✈ 16-Jun-2014 ✈ KALB - KFLL

Flight Track Log - Related Links

Times and Time Zones

All times are in EDT time to prevent confusion due to time zone crossing. See the SWA415 flight status page for this flight to view local times or setup timezone preferences in your user account.

Time Position Orientation Groundspeed Altitude Reporting Facility
EDT Latitude Longitude Course Direction KTS MPH feet Rate Location/Type
09:11AM 42.7719 -73.8072 318° Northwest 154 177 1,500  Level Boston Center
09:12AM 42.7983 -73.8394 318° Northwest 203 234 2,700 2,040 Climbing Boston Center
09:12AM 42.8114 -73.8731 298° West 214 246 4,100 3,540 Climbing Boston Center
09:13AM 42.8356 -73.9453 295° West 215 247 8,000 3,120 Climbing Boston Center
09:14AM 42.8033 -74.0194 239° Southwest 272 313 10,500 2,460 Climbing Boston Center
09:15AM 42.7261 -74.0861 212° Southwest 332 382 13,100 2,820 Climbing Boston Center
09:16AM 42.6425 -74.1556 211° Southwest 352 405 16,300 2,880 Climbing Boston Center
09:17AM 42.5422 -74.1144 163° South 391 450 19,000 2,460 Climbing Boston Center
09:18AM 42.4378 -74.0428 153° Southeast 414 476 21,500 2,460 Climbing Boston Center
09:19AM 42.3303 -73.9736 155° Southeast 425 489 24,100 2,340 Climbing Boston Center
09:20AM 42.2228 -73.9000 153° Southeast 431 496 26,300 1,920 Climbing Boston Center
09:21AM 42.1019 -73.9081 183° South 443 510 28,100 1,800 Climbing Boston Center
09:22AM 41.9822 -73.9544 196° South 445 512 30,000 2,160 Climbing Boston Center
09:23AM 41.8350 -74.0092 195° South 457 526 32,500 2,100 Climbing Boston Center
09:24AM 41.7278 -74.0508 196° South 451 519 34,400 1,500 Climbing Boston Center
09:25AM 41.6106 -74.0953 196° South 444 511 35,700 1,320 Climbing Boston Center
09:26AM 41.4911 -74.1397 196° South 444 511 37,100 1,260 Climbing Boston Center
09:27AM 41.3731 -74.1844 196° South 444 511 38,300 1,200 Climbing Boston Center
09:28AM 41.2733 -74.2300 199° South 451 519 39,300 960 Climbing New York Center
09:29AM 41.1683 -74.3350 217° Southwest 433 498 40,000 300 Climbing New York Center
09:30AM 41.0842 -74.4294 220° Southwest 440 506 40,000  Level New York Center
09:31AM 40.9828 -74.5367 219° Southwest 434 499 40,000  Level New York Center
09:32AM 40.9006 -74.6283 220° Southwest 434 499 40,000  Level New York Center
09:33AM 40.7992 -74.7403 220° Southwest 440 506 40,000  Level New York Center
09:34AM 40.7147 -74.8286 218° Southwest 440 506 40,000  Level New York Center
09:35AM 40.6197 -74.9294 219° Southwest 440 506 40,000  Level New York Center
09:36AM 40.5136 -75.0378 218° Southwest 440 506 40,000  Level New York Center
09:37AM 40.4203 -75.1411 220° Southwest 440 506 40,000  Level New York Center
09:38AM 40.3286 -75.2494 222° Southwest 440 506 40,000  Level New York Center
09:39AM 40.2558 -75.3564 228° Southwest 440 506 40,000  Level New York Center
09:40AM 40.1672 -75.4892 229° Southwest 446 513 40,000  Level New York Center
09:41AM 40.0919 -75.5953 227° Southwest 446 513 40,000  Level New York Center
09:42AM 40.0033 -75.7192 227° Southwest 446 513 40,000  Level New York Center
09:43AM 39.9194 -75.8350 227° Southwest 441 507 40,000  Level New York Center
09:45AM 39.7458 -76.0828 228° Southwest 447 514 40,000  Level Washington Center
09:46AM 39.6494 -76.2114 226° Southwest 447 514 40,000  Level Washington Center
09:47AM 39.5675 -76.3239 227° Southwest 447 514 40,000  Level Washington Center
09:48AM 39.4856 -76.4411 228° Southwest 447 514 40,000  Level Washington Center
09:49AM 39.3994 -76.5531 225° Southwest 447 514 40,000  Level Washington Center
09:50AM 39.3150 -76.6728 228° Southwest 447 514 40,000  Level Washington Center
09:51AM 39.2306 -76.7839 226° Southwest 447 514 40,000  Level Washington Center
09:52AM 39.1458 -76.9003 227° Southwest 452 520 40,000  Level Washington Center
09:53AM 39.0614 -77.0164 227° Southwest 452 520 40,000  Level Washington Center
09:54AM 38.9789 -77.1111 222° Southwest 447 514 40,000  Level Washington Center
09:55AM 38.8836 -77.2131 220° Southwest 447 514 40,000  Level Washington Center
09:56AM 38.7906 -77.3147 220° Southwest 447 514 40,000  Level Washington Center
09:57AM 38.6953 -77.4136 219° Southwest 447 514 40,000  Level Washington Center
09:58AM 38.5997 -77.5175 220° Southwest 447 514 40,000  Level Washington Center
09:59AM 38.4978 -77.6317 221° Southwest 442 509 40,000  Level Washington Center
10:00AM 38.4022 -77.7350 220° Southwest 442 509 40,000  Level Washington Center
10:01AM 38.3067 -77.8356 220° Southwest 442 509 40,000  Level Washington Center
10:02AM 38.2089 -77.9303 217° Southwest 442 509 40,000  Level Washington Center
10:03AM 38.1111 -78.0275 218° Southwest 453 521 40,000  Level Washington Center
10:04AM 38.0131 -78.1244 218° Southwest 453 521 40,000  Level Washington Center
10:05AM 37.9278 -78.2086 218° Southwest 448 516 40,000  Level Washington Center
10:06AM 37.8278 -78.3025 217° Southwest 453 521 40,000  Level Washington Center
10:07AM 37.7211 -78.4008 216° Southwest 453 521 40,000  Level Washington Center
10:08AM 37.6228 -78.4997 219° Southwest 448 516 40,000  Level Washington Center
10:09AM 37.5267 -78.5903 217° Southwest 443 510 40,000  Level Washington Center
10:10AM 37.4306 -78.6858 218° Southwest 443 510 40,000  Level Washington Center
10:11AM 37.3322 -78.7758 216° Southwest 448 516 40,000  Level Washington Center
10:12AM 37.2336 -78.8708 217° Southwest 448 516 40,000  Level Washington Center
10:13AM 37.1308 -78.9656 216° Southwest 448 516 40,000  Level Washington Center
10:14AM 37.0300 -79.0625 218° Southwest 455 524 40,000  Level Washington Center
10:15AM 36.9314 -79.1569 217° Southwest 455 524 40,000  Level Washington Center
10:16AM 36.8283 -79.2533 217° Southwest 455 524 40,000  Level Washington Center
10:17AM 36.7294 -79.3469 217° Southwest 455 524 40,000  Level Washington Center
10:18AM 36.6283 -79.4406 217° Southwest 455 524 40,000  Level Washington Center
10:20AM 36.4475 -79.6097 217° Southwest 456 525 40,000  Level Atlanta Center
10:21AM 36.3447 -79.7031 216° Southwest 456 525 40,000  Level Atlanta Center
10:22AM 36.2436 -79.7986 217° Southwest 456 525 40,000  Level Atlanta Center
10:23AM 36.1425 -79.8889 216° Southwest 462 532 40,000  Level Atlanta Center
10:24AM 36.0533 -79.9653 215° Southwest 462 532 40,000  Level Atlanta Center
10:25AM 35.9386 -80.0303 205° Southwest 457 526 40,000  Level Atlanta Center
10:26AM 35.8217 -80.0897 202° Southwest 452 520 40,000  Level Atlanta Center
10:27AM 35.7025 -80.1492 202° Southwest 457 526 40,000  Level Atlanta Center
10:28AM 35.5875 -80.2056 202° Southwest 457 526 40,000  Level Atlanta Center
10:29AM 35.4703 -80.2647 202° Southwest 457 526 40,000  Level Atlanta Center
10:30AM 35.3511 -80.3236 202° Southwest 457 526 40,000  Level Atlanta Center
10:31AM 35.2361 -80.3822 203° Southwest 457 526 40,000  Level Atlanta Center
10:33AM 35.0172 -80.4872 201° Southwest 459 528 40,000  Level Jacksonville Center
10:34AM 34.8994 -80.5461 202° Southwest 465 535 40,000  Level Jacksonville Center
10:35AM 34.7858 -80.6100 205° Southwest 455 524 40,000  Level Jacksonville Center
10:36AM 34.6678 -80.6611 200° South 455 524 40,000  Level Jacksonville Center
10:37AM 34.5439 -80.7222 202° Southwest 463 533 40,000  Level Jacksonville Center
10:38AM 34.4239 -80.7856 204° Southwest 468 539 40,000  Level Jacksonville Center
10:39AM 34.3039 -80.8464 203° Southwest 468 539 40,000  Level Jacksonville Center
10:40AM 34.1919 -80.8967 200° South 457 526 40,000  Level Jacksonville Center
10:41AM 34.0719 -80.9547 202° Southwest 457 526 40,000  Level Jacksonville Center
10:42AM 33.9539 -81.0122 202° Southwest 457 526 40,000  Level Jacksonville Center
10:43AM 33.8378 -81.0647 201° Southwest 452 520 40,000  Level Jacksonville Center
10:44AM 33.7197 -81.1272 204° Southwest 452 520 40,000  Level Jacksonville Center
10:45AM 33.6017 -81.1869 203° Southwest 452 520 40,000  Level Jacksonville Center
10:46AM 33.4897 -81.2389 201° Southwest 465 535 40,000  Level Jacksonville Center
10:47AM 33.3714 -81.2958 202° Southwest 465 535 40,000  Level Jacksonville Center
10:48AM 33.2511 -81.3550 202° Southwest 465 535 40,000  Level Jacksonville Center
10:49AM 33.1286 -81.4167 203° Southwest 471 542 40,000  Level Jacksonville Center
10:50AM 33.0125 -81.4731 202° Southwest 471 542 40,000  Level Jacksonville Center
10:51AM 32.8900 -81.5319 202° Southwest 471 542 40,000  Level Jacksonville Center
10:52AM 32.7714 -81.5881 202° Southwest 471 542 40,000  Level Jacksonville Center
10:53AM 32.6406 -81.6517 202° Southwest 471 542 40,000  Level Jacksonville Center
10:54AM 32.5222 -81.7100 203° Southwest 471 542 40,000  Level Jacksonville Center
10:55AM 32.4119 -81.7631 202° Southwest 471 542 40,000  Level Jacksonville Center
10:56AM 32.2789 -81.8261 202° Southwest 471 542 40,000  Level Jacksonville Center
10:57AM 32.1708 -81.8789 202° Southwest 471 542 40,000  Level Jacksonville Center
10:58AM 32.0333 -81.9294 197° South 471 542 40,000  Level Jacksonville Center
10:59AM 31.9042 -81.9553 190° South 471 542 40,000  Level Jacksonville Center
11:00AM 31.7833 -81.9761 188° South 482 555 40,000  Level Jacksonville Center
11:01AM 31.6414 -82.0042 190° South 482 555 40,000  Level Jacksonville Center
11:02AM 31.5206 -82.0250 188° South 482 555 40,000  Level Jacksonville Center
11:03AM 31.3892 -82.0506 189° South 482 555 40,000  Level Jacksonville Center
11:04AM 31.2597 -82.0736 189° South 482 555 40,000  Level Jacksonville Center
11:05AM 31.1283 -82.0964 188° South 482 555 40,000  Level Jacksonville Center
11:06AM 30.9969 -82.1194 189° South 482 555 40,000  Level Jacksonville Center
11:07AM 30.8656 -82.1400 188° South 482 555 40,000  Level Jacksonville Center
11:08AM 30.7342 -82.1650 189° South 482 555 40,000  Level Jacksonville Center
11:09AM 30.6069 -82.1878 189° South 482 555 40,000  Level Jacksonville Center
11:10AM 30.4608 -82.2058 186° South 482 555 40,000  Level Jacksonville Center
11:11AM 30.3294 -82.2283 188° South 482 555 40,000  Level Jacksonville Center
11:12AM 30.1961 -82.2533 189° South 482 555 40,000 -120 Level Jacksonville Center
11:13AM 30.0667 -82.2758 189° South 482 555 39,800 -600 Descending Jacksonville Center
11:14AM 29.9333 -82.3031 190° South 487 560 38,800 -960 Descending Jacksonville Center
11:15AM 29.7956 -82.3278 189° South 487 560 37,900 -960 Descending Jacksonville Center
11:16AM 29.6683 -82.3475 188° South 482 555 36,900 -480 Descending Jacksonville Center
11:17AM 29.5347 -82.3697 188° South 482 555 37,000  Climbing Jacksonville Center
11:18AM 29.4053 -82.3919 189° South 482 555 37,000  Level Jacksonville Center
11:19AM 29.2761 -82.4142 189° South 482 555 37,000  Level Jacksonville Center
11:20AM 29.1447 -82.4386 189° South 482 555 37,000  Level Jacksonville Center
11:21AM 29.0172 -82.4533 186° South 482 555 37,000  Level Jacksonville Center
11:22AM 28.8983 -82.4586 182° South 482 555 37,000  Level Jacksonville Center
11:23AM 28.7711 -82.4661 183° South 477 549 37,000 -120 Level Jacksonville Center
11:24AM 28.6269 -82.4525 175° South 477 549 36,800 -600 Descending Jacksonville Center
11:25AM 28.4975 -82.4272 170° South 477 549 35,800 -660 Descending Jacksonville Center
11:27AM 28.3011 -82.3836 169° South 463 533 35,000 -300 Descending Miami Center
11:28AM 28.1514 -82.3539 170° South 457 526 35,000  Level Miami Center
11:29AM 28.0286 -82.3289 170° South 454 522 35,000  Level Miami Center
11:30AM 27.9044 -82.3042 170° South 455 524 35,000  Level Miami Center
11:31AM 27.7689 -82.2761 170° South 449 517 35,000  Level Miami Center
11:32AM 27.6400 -82.2511 170° South 449 517 35,000  Level Miami Center
11:33AM 27.5119 -82.2253 170° South 448 516 35,000 -240 Level Miami Center
11:34AM 27.3850 -82.2000 170° South 444 511 34,600 -720 Descending Miami Center
11:35AM 27.2569 -82.1722 169° South 446 513 33,600 -960 Descending Miami Center
11:36AM 27.1581 -82.0986 146° Southeast 447 514 32,700 -960 Descending Miami Center
11:37AM 27.0558 -82.0086 142° Southeast 447 514 31,700 -1,140 Descending Miami Center
11:38AM 26.9586 -81.9153 139° Southeast 444 511 30,400 -1,860 Descending Miami Center
11:39AM 26.8722 -81.8175 135° Southeast 444 511 27,900 -2,340 Descending Miami Center
11:40AM 26.7897 -81.7239 135° Southeast 425 489 25,600 -2,280 Descending Miami Center
11:41AM 26.6975 -81.6222 135° Southeast 407 468 23,200 -2,280 Descending Miami Center
11:42AM 26.6167 -81.5319 135° Southeast 392 451 21,000 -2,100 Descending Miami Center
11:43AM 26.5386 -81.4458 135° Southeast 381 438 18,900 -1,980 Descending Miami Center
11:44AM 26.4647 -81.3642 135° Southeast 378 435 17,000 -2,100 Descending Miami Center
11:45AM 26.3864 -81.2781 135° Southeast 370 426 14,600 -2,160 Descending Miami Center
11:46AM 26.3164 -81.2006 135° Southeast 362 417 12,600 -2,040 Descending Miami Center
11:47AM 26.2425 -81.1192 135° Southeast 349 402 10,400 -1,380 Descending Miami Center
11:48AM 26.1833 -81.0542 135° Southeast 300 345 9,900 -1,020 Descending Miami Center
11:49AM 26.1286 -80.9961 136° Southeast 297 342 8,500 -1,380 Descending Miami Center
11:49AM 26.1272 -80.9931 117° Southeast 302 348 8,400 -1,320 Descending Miami Center
11:50AM 26.1006 -80.9172 111° Southeast 283 326 7,200 -1,500 Descending Miami Center
11:50AM 26.1008 -80.8953 89° East 286 329 6,900 -1,080 Descending Miami Center
11:51AM 26.0944 -80.8192 95° East 272 313 6,000 -480 Descending Miami Center
11:52AM 26.0900 -80.7306 93° East 265 305 6,000  Level Miami Center
11:53AM 26.0867 -80.6539 93° East 267 307 6,000  Level Miami Center
11:54AM 26.0856 -80.6478 101° East 266 306 6,000 -540 Level Miami Center
11:55AM 26.0814 -80.5669 93° East 262 302 5,400 -900 Descending Miami Center
11:55AM 26.0783 -80.4931 93° East 221 254 4,300 -660 Descending Miami Center
11:57AM 26.0783 -80.4311 90° East 208 239 4,100 -360 Descending Miami Center
11:57AM 26.0775 -80.3747 91° East 190 219 3,700 -720 Descending Miami Center
11:58AM 26.0778 -80.3636 88° East 188 216 3,400 -1,020 Descending Miami Center
11:58AM 26.0767 -80.3189 92° East 184 212 2,700 -900 Descending Miami Center
11:59AM 26.0775 -80.3056 86° East 188 216 2,500 -1,020 Descending Miami Center
11:59AM 26.0781 -80.2658 89° East 171 197 1,700 -1,020 Descending Miami Center
12:00PM 26.0775 -80.2533 93° East 175 201 1,500 -720 Descending Miami Center
12:00PM 26.0767 -80.2192 92° East 122 140 1,000 -720 Descending Miami Center
12:01PM 26.0764 -80.2100 92° East 144 166 800 -720 Descending Miami Center
12:01PM 26.0772 -80.1800 88° East 127 146 300 -720 Descending Miami Center
12:04PM 26.0667 -80.1500 180° South  Level FlightAware Approximate